sensor_id;sensor_type;location;lat;lon;timestamp;P1;durP1;ratioP1;P2;durP2;ratioP2
57401;SDS011;43226;51.110;6.998;2022-10-16T00:01:41;6.17;;;4.40;;
57401;SDS011;43226;51.110;6.998;2022-10-16T00:04:06;10.87;;;5.00;;
57401;SDS011;43226;51.110;6.998;2022-10-16T00:06:31;6.73;;;4.90;;
57401;SDS011;43226;51.110;6.998;2022-10-16T00:08:57;6.00;;;4.33;;
57401;SDS011;43226;51.110;6.998;2022-10-16T00:11:23;7.17;;;4.50;;
57401;SDS011;43226;51.110;6.998;2022-10-16T00:13:49;5.43;;;4.17;;
57401;SDS011;43226;51.110;6.998;2022-10-16T00:16:15;6.67;;;4.40;;
57401;SDS011;43226;51.110;6.998;2022-10-16T00:18:41;8.17;;;5.60;;
57401;SDS011;43226;51.110;6.998;2022-10-16T00:21:07;6.67;;;4.37;;
57401;SDS011;43226;51.110;6.998;2022-10-16T00:23:33;6.10;;;5.10;;
57401;SDS011;43226;51.110;6.998;2022-10-16T00:25:59;6.03;;;5.37;;
57401;SDS011;43226;51.110;6.998;2022-10-16T00:28:24;11.50;;;5.20;;
57401;SDS011;43226;51.110;6.998;2022-10-16T00:30:50;9.07;;;5.10;;
57401;SDS011;43226;51.110;6.998;2022-10-16T00:33:15;8.73;;;5.33;;
57401;SDS011;43226;51.110;6.998;2022-10-16T00:35:40;10.30;;;5.87;;
57401;SDS011;43226;51.110;6.998;2022-10-16T00:38:06;9.10;;;5.87;;
57401;SDS011;43226;51.110;6.998;2022-10-16T00:40:31;10.80;;;6.10;;
57401;SDS011;43226;51.110;6.998;2022-10-16T00:42:56;5.53;;;5.03;;
57401;SDS011;43226;51.110;6.998;2022-10-16T00:45:21;6.03;;;5.10;;
57401;SDS011;43226;51.110;6.998;2022-10-16T00:47:47;8.33;;;5.63;;
57401;SDS011;43226;51.110;6.998;2022-10-16T00:50:28;6.20;;;5.60;;
57401;SDS011;43226;51.110;6.998;2022-10-16T00:52:54;6.70;;;5.57;;
57401;SDS011;43226;51.110;6.998;2022-10-16T00:55:20;7.97;;;5.50;;
57401;SDS011;43226;51.110;6.998;2022-10-16T00:57:45;8.17;;;5.97;;
57401;SDS011;43226;51.110;6.998;2022-10-16T01:00:12;5.67;;;5.00;;
57401;SDS011;43226;51.110;6.998;2022-10-16T01:02:37;5.50;;;4.90;;
57401;SDS011;43226;51.110;6.998;2022-10-16T01:05:02;8.13;;;5.47;;
57401;SDS011;43226;51.110;6.998;2022-10-16T01:12:43;10.70;;;4.73;;
57401;SDS011;43226;51.110;6.998;2022-10-16T01:15:11;6.20;;;5.10;;
57401;SDS011;43226;51.110;6.998;2022-10-16T01:17:49;9.07;;;4.80;;
57401;SDS011;43226;51.110;6.998;2022-10-16T01:23:01;5.77;;;5.17;;
57401;SDS011;43226;51.110;6.998;2022-10-16T01:28:13;5.90;;;4.87;;
57401;SDS011;43226;51.110;6.998;2022-10-16T01:30:39;5.40;;;4.87;;
57401;SDS011;43226;51.110;6.998;2022-10-16T01:33:10;6.50;;;4.77;;
57401;SDS011;43226;51.110;6.998;2022-10-16T01:35:41;4.73;;;4.20;;
57401;SDS011;43226;51.110;6.998;2022-10-16T01:38:18;10.40;;;4.20;;
57401;SDS011;43226;51.110;6.998;2022-10-16T01:40:46;6.43;;;4.37;;
57401;SDS011;43226;51.110;6.998;2022-10-16T01:43:13;4.90;;;4.40;;
57401;SDS011;43226;51.110;6.998;2022-10-16T01:45:39;5.70;;;3.80;;
57401;SDS011;43226;51.110;6.998;2022-10-16T01:48:05;4.17;;;3.77;;
57401;SDS011;43226;51.110;6.998;2022-10-16T01:50:33;4.80;;;3.67;;
57401;SDS011;43226;51.110;6.998;2022-10-16T01:53:00;3.60;;;3.30;;
57401;SDS011;43226;51.110;6.998;2022-10-16T01:55:34;10.07;;;3.97;;
57401;SDS011;43226;51.110;6.998;2022-10-16T01:58:01;5.87;;;3.90;;
57401;SDS011;43226;51.110;6.998;2022-10-16T02:00:27;3.90;;;2.73;;
57401;SDS011;43226;51.110;6.998;2022-10-16T02:02:53;3.33;;;3.03;;
57401;SDS011;43226;51.110;6.998;2022-10-16T02:07:48;4.20;;;3.13;;
57401;SDS011;43226;51.110;6.998;2022-10-16T02:10:14;3.43;;;3.10;;
57401;SDS011;43226;51.110;6.998;2022-10-16T02:12:40;4.53;;;2.70;;
57401;SDS011;43226;51.110;6.998;2022-10-16T02:15:07;3.03;;;2.80;;
57401;SDS011;43226;51.110;6.998;2022-10-16T02:17:32;3.20;;;2.60;;
57401;SDS011;43226;51.110;6.998;2022-10-16T02:19:57;2.40;;;2.17;;
57401;SDS011;43226;51.110;6.998;2022-10-16T02:22:31;3.30;;;2.67;;
57401;SDS011;43226;51.110;6.998;2022-10-16T02:30:07;4.30;;;3.70;;
57401;SDS011;43226;51.110;6.998;2022-10-16T02:32:34;6.57;;;4.13;;
57401;SDS011;43226;51.110;6.998;2022-10-16T02:35:00;11.60;;;4.60;;
57401;SDS011;43226;51.110;6.998;2022-10-16T02:37:26;9.47;;;5.30;;
57401;SDS011;43226;51.110;6.998;2022-10-16T02:39:52;11.50;;;5.13;;
57401;SDS011;43226;51.110;6.998;2022-10-16T02:42:18;8.20;;;4.10;;
57401;SDS011;43226;51.110;6.998;2022-10-16T02:44:43;6.03;;;4.30;;
57401;SDS011;43226;51.110;6.998;2022-10-16T02:47:08;8.93;;;4.47;;
57401;SDS011;43226;51.110;6.998;2022-10-16T02:49:34;3.33;;;3.10;;
57401;SDS011;43226;51.110;6.998;2022-10-16T02:51:59;3.53;;;3.23;;
57401;SDS011;43226;51.110;6.998;2022-10-16T02:54:24;5.13;;;3.13;;
57401;SDS011;43226;51.110;6.998;2022-10-16T02:56:49;4.30;;;3.00;;
57401;SDS011;43226;51.110;6.998;2022-10-16T02:59:15;5.67;;;2.20;;
57401;SDS011;43226;51.110;6.998;2022-10-16T03:01:40;2.93;;;2.10;;
57401;SDS011;43226;51.110;6.998;2022-10-16T03:04:05;4.83;;;2.53;;
57401;SDS011;43226;51.110;6.998;2022-10-16T03:06:30;6.07;;;3.07;;
57401;SDS011;43226;51.110;6.998;2022-10-16T03:08:56;2.70;;;2.50;;
57401;SDS011;43226;51.110;6.998;2022-10-16T03:11:21;5.00;;;3.10;;
57401;SDS011;43226;51.110;6.998;2022-10-16T03:13:46;2.30;;;2.10;;
57401;SDS011;43226;51.110;6.998;2022-10-16T03:16:11;2.93;;;1.97;;
57401;SDS011;43226;51.110;6.998;2022-10-16T03:18:36;2.43;;;2.27;;
57401;SDS011;43226;51.110;6.998;2022-10-16T03:21:02;7.63;;;2.30;;
57401;SDS011;43226;51.110;6.998;2022-10-16T03:23:27;6.00;;;2.27;;
57401;SDS011;43226;51.110;6.998;2022-10-16T03:25:53;2.27;;;1.90;;
57401;SDS011;43226;51.110;6.998;2022-10-16T03:28:19;2.60;;;2.37;;
57401;SDS011;43226;51.110;6.998;2022-10-16T03:30:44;2.00;;;1.90;;
57401;SDS011;43226;51.110;6.998;2022-10-16T03:33:09;2.70;;;2.13;;
57401;SDS011;43226;51.110;6.998;2022-10-16T03:35:34;3.43;;;2.23;;
57401;SDS011;43226;51.110;6.998;2022-10-16T03:37:59;3.60;;;1.77;;
57401;SDS011;43226;51.110;6.998;2022-10-16T03:40:25;2.53;;;2.33;;
57401;SDS011;43226;51.110;6.998;2022-10-16T03:42:50;2.73;;;2.23;;
57401;SDS011;43226;51.110;6.998;2022-10-16T03:45:15;2.67;;;2.23;;
57401;SDS011;43226;51.110;6.998;2022-10-16T03:47:40;3.77;;;2.13;;
57401;SDS011;43226;51.110;6.998;2022-10-16T03:50:06;2.10;;;1.90;;
57401;SDS011;43226;51.110;6.998;2022-10-16T03:52:31;2.90;;;2.67;;
57401;SDS011;43226;51.110;6.998;2022-10-16T03:54:57;3.57;;;2.50;;
57401;SDS011;43226;51.110;6.998;2022-10-16T03:57:23;2.77;;;1.87;;
57401;SDS011;43226;51.110;6.998;2022-10-16T03:59:48;6.07;;;2.30;;
57401;SDS011;43226;51.110;6.998;2022-10-16T04:02:13;4.87;;;2.00;;
57401;SDS011;43226;51.110;6.998;2022-10-16T04:04:38;2.00;;;1.80;;
57401;SDS011;43226;51.110;6.998;2022-10-16T04:07:03;6.40;;;2.47;;
57401;SDS011;43226;51.110;6.998;2022-10-16T04:09:29;4.17;;;2.17;;
57401;SDS011;43226;51.110;6.998;2022-10-16T04:11:54;4.23;;;2.70;;
57401;SDS011;43226;51.110;6.998;2022-10-16T04:14:19;2.10;;;2.00;;
57401;SDS011;43226;51.110;6.998;2022-10-16T04:16:44;2.97;;;2.00;;
57401;SDS011;43226;51.110;6.998;2022-10-16T04:19:10;2.90;;;2.43;;
57401;SDS011;43226;51.110;6.998;2022-10-16T04:21:35;4.60;;;2.17;;
57401;SDS011;43226;51.110;6.998;2022-10-16T04:24:00;6.07;;;2.47;;
57401;SDS011;43226;51.110;6.998;2022-10-16T04:26:25;3.77;;;2.00;;
57401;SDS011;43226;51.110;6.998;2022-10-16T04:28:50;2.60;;;2.40;;
57401;SDS011;43226;51.110;6.998;2022-10-16T04:31:16;4.57;;;2.47;;
57401;SDS011;43226;51.110;6.998;2022-10-16T04:33:44;2.70;;;2.50;;
57401;SDS011;43226;51.110;6.998;2022-10-16T04:36:09;2.43;;;2.23;;
57401;SDS011;43226;51.110;6.998;2022-10-16T04:38:34;3.30;;;2.87;;
57401;SDS011;43226;51.110;6.998;2022-10-16T04:40:59;5.90;;;2.53;;
57401;SDS011;43226;51.110;6.998;2022-10-16T04:43:25;4.90;;;2.90;;
57401;SDS011;43226;51.110;6.998;2022-10-16T04:45:50;8.90;;;2.87;;
57401;SDS011;43226;51.110;6.998;2022-10-16T04:48:16;3.00;;;2.77;;
57401;SDS011;43226;51.110;6.998;2022-10-16T04:50:41;4.77;;;3.00;;
57401;SDS011;43226;51.110;6.998;2022-10-16T04:53:06;9.50;;;2.40;;
57401;SDS011;43226;51.110;6.998;2022-10-16T04:55:32;2.40;;;2.20;;
57401;SDS011;43226;51.110;6.998;2022-10-16T04:57:57;3.17;;;2.43;;
57401;SDS011;43226;51.110;6.998;2022-10-16T05:00:22;3.10;;;2.80;;
57401;SDS011;43226;51.110;6.998;2022-10-16T05:02:49;2.70;;;2.50;;
57401;SDS011;43226;51.110;6.998;2022-10-16T05:05:14;2.47;;;2.27;;
57401;SDS011;43226;51.110;6.998;2022-10-16T05:07:40;8.23;;;2.73;;
57401;SDS011;43226;51.110;6.998;2022-10-16T05:10:05;4.87;;;2.90;;
57401;SDS011;43226;51.110;6.998;2022-10-16T05:12:30;3.93;;;2.40;;
57401;SDS011;43226;51.110;6.998;2022-10-16T05:14:55;2.70;;;2.50;;
57401;SDS011;43226;51.110;6.998;2022-10-16T05:17:23;4.20;;;2.53;;
57401;SDS011;43226;51.110;6.998;2022-10-16T05:19:48;5.90;;;2.33;;
57401;SDS011;43226;51.110;6.998;2022-10-16T05:22:14;2.40;;;2.20;;
57401;SDS011;43226;51.110;6.998;2022-10-16T05:24:39;2.67;;;2.40;;
57401;SDS011;43226;51.110;6.998;2022-10-16T05:27:04;2.83;;;2.33;;
57401;SDS011;43226;51.110;6.998;2022-10-16T05:29:29;5.93;;;3.00;;
57401;SDS011;43226;51.110;6.998;2022-10-16T05:31:55;3.87;;;2.27;;
57401;SDS011;43226;51.110;6.998;2022-10-16T05:34:20;5.40;;;2.50;;
57401;SDS011;43226;51.110;6.998;2022-10-16T05:36:46;3.20;;;2.80;;
57401;SDS011;43226;51.110;6.998;2022-10-16T05:39:11;4.13;;;2.27;;
57401;SDS011;43226;51.110;6.998;2022-10-16T05:41:36;2.70;;;2.50;;
57401;SDS011;43226;51.110;6.998;2022-10-16T05:44:05;4.63;;;2.87;;
57401;SDS011;43226;51.110;6.998;2022-10-16T05:46:30;3.80;;;2.43;;
57401;SDS011;43226;51.110;6.998;2022-10-16T05:48:56;2.67;;;2.47;;
57401;SDS011;43226;51.110;6.998;2022-10-16T05:51:21;3.87;;;2.73;;
57401;SDS011;43226;51.110;6.998;2022-10-16T05:53:46;3.53;;;3.33;;
57401;SDS011;43226;51.110;6.998;2022-10-16T05:56:12;4.93;;;3.03;;
57401;SDS011;43226;51.110;6.998;2022-10-16T05:58:38;9.37;;;3.00;;
57401;SDS011;43226;51.110;6.998;2022-10-16T06:01:12;3.60;;;3.20;;
57401;SDS011;43226;51.110;6.998;2022-10-16T06:03:38;9.30;;;3.67;;
57401;SDS011;43226;51.110;6.998;2022-10-16T06:08:34;7.73;;;3.70;;
57401;SDS011;43226;51.110;6.998;2022-10-16T06:11:00;6.20;;;3.43;;
57401;SDS011;43226;51.110;6.998;2022-10-16T06:13:25;3.70;;;3.40;;
57401;SDS011;43226;51.110;6.998;2022-10-16T06:15:51;2.83;;;2.63;;
57401;SDS011;43226;51.110;6.998;2022-10-16T06:18:16;4.27;;;2.57;;
57401;SDS011;43226;51.110;6.998;2022-10-16T06:20:41;3.23;;;2.53;;
57401;SDS011;43226;51.110;6.998;2022-10-16T06:23:06;3.13;;;2.90;;
57401;SDS011;43226;51.110;6.998;2022-10-16T06:25:31;2.67;;;2.47;;
57401;SDS011;43226;51.110;6.998;2022-10-16T06:27:56;5.87;;;2.20;;
57401;SDS011;43226;51.110;6.998;2022-10-16T06:30:22;10.60;;;4.40;;
57401;SDS011;43226;51.110;6.998;2022-10-16T06:32:47;2.20;;;2.10;;
57401;SDS011;43226;51.110;6.998;2022-10-16T06:35:12;5.50;;;2.10;;
57401;SDS011;43226;51.110;6.998;2022-10-16T06:37:37;2.30;;;2.10;;
57401;SDS011;43226;51.110;6.998;2022-10-16T06:40:02;5.17;;;2.20;;
57401;SDS011;43226;51.110;6.998;2022-10-16T06:42:29;5.23;;;2.27;;
57401;SDS011;43226;51.110;6.998;2022-10-16T06:44:54;1.80;;;1.70;;
57401;SDS011;43226;51.110;6.998;2022-10-16T06:47:19;3.10;;;1.63;;
57401;SDS011;43226;51.110;6.998;2022-10-16T06:49:44;2.33;;;2.00;;
57401;SDS011;43226;51.110;6.998;2022-10-16T06:52:10;3.50;;;1.40;;
57401;SDS011;43226;51.110;6.998;2022-10-16T06:54:35;3.80;;;2.40;;
57401;SDS011;43226;51.110;6.998;2022-10-16T06:57:00;1.70;;;1.60;;
57401;SDS011;43226;51.110;6.998;2022-10-16T06:59:26;1.93;;;1.63;;
57401;SDS011;43226;51.110;6.998;2022-10-16T07:01:52;2.10;;;1.70;;
57401;SDS011;43226;51.110;6.998;2022-10-16T07:04:17;2.20;;;1.60;;
57401;SDS011;43226;51.110;6.998;2022-10-16T07:06:42;3.20;;;1.53;;
57401;SDS011;43226;51.110;6.998;2022-10-16T07:09:08;1.63;;;1.53;;
57401;SDS011;43226;51.110;6.998;2022-10-16T07:11:34;2.33;;;1.60;;
57401;SDS011;43226;51.110;6.998;2022-10-16T07:13:59;1.80;;;1.60;;
57401;SDS011;43226;51.110;6.998;2022-10-16T07:16:28;1.80;;;1.70;;
57401;SDS011;43226;51.110;6.998;2022-10-16T07:18:54;5.67;;;1.63;;
57401;SDS011;43226;51.110;6.998;2022-10-16T07:21:23;2.27;;;1.63;;
57401;SDS011;43226;51.110;6.998;2022-10-16T07:23:53;1.83;;;1.30;;
57401;SDS011;43226;51.110;6.998;2022-10-16T07:26:19;3.17;;;1.60;;
57401;SDS011;43226;51.110;6.998;2022-10-16T07:28:44;6.27;;;1.73;;
57401;SDS011;43226;51.110;6.998;2022-10-16T07:31:10;5.20;;;2.00;;
57401;SDS011;43226;51.110;6.998;2022-10-16T07:33:36;1.90;;;1.70;;
57401;SDS011;43226;51.110;6.998;2022-10-16T07:36:02;2.90;;;1.70;;
57401;SDS011;43226;51.110;6.998;2022-10-16T07:38:27;5.10;;;1.40;;
57401;SDS011;43226;51.110;6.998;2022-10-16T07:40:59;3.10;;;1.80;;
57401;SDS011;43226;51.110;6.998;2022-10-16T07:43:25;1.77;;;1.30;;
57401;SDS011;43226;51.110;6.998;2022-10-16T07:45:50;1.77;;;1.50;;
57401;SDS011;43226;51.110;6.998;2022-10-16T07:48:16;6.20;;;1.60;;
57401;SDS011;43226;51.110;6.998;2022-10-16T07:50:42;2.37;;;1.40;;
57401;SDS011;43226;51.110;6.998;2022-10-16T07:53:07;1.70;;;1.60;;
57401;SDS011;43226;51.110;6.998;2022-10-16T07:55:32;5.77;;;1.53;;
57401;SDS011;43226;51.110;6.998;2022-10-16T07:57:58;2.37;;;2.00;;
57401;SDS011;43226;51.110;6.998;2022-10-16T08:00:23;1.70;;;1.60;;
57401;SDS011;43226;51.110;6.998;2022-10-16T08:02:48;2.80;;;1.73;;
57401;SDS011;43226;51.110;6.998;2022-10-16T08:05:13;2.10;;;1.60;;
57401;SDS011;43226;51.110;6.998;2022-10-16T08:07:38;3.13;;;1.40;;
57401;SDS011;43226;51.110;6.998;2022-10-16T08:10:04;2.03;;;1.50;;
57401;SDS011;43226;51.110;6.998;2022-10-16T08:12:29;3.67;;;1.50;;
57401;SDS011;43226;51.110;6.998;2022-10-16T08:14:54;2.50;;;1.37;;
57401;SDS011;43226;51.110;6.998;2022-10-16T08:17:19;2.90;;;1.50;;
57401;SDS011;43226;51.110;6.998;2022-10-16T08:19:45;3.23;;;1.43;;
57401;SDS011;43226;51.110;6.998;2022-10-16T08:22:11;2.33;;;1.30;;
57401;SDS011;43226;51.110;6.998;2022-10-16T08:24:36;2.00;;;1.20;;
57401;SDS011;43226;51.110;6.998;2022-10-16T08:27:02;1.63;;;1.20;;
57401;SDS011;43226;51.110;6.998;2022-10-16T08:29:27;1.20;;;1.10;;
57401;SDS011;43226;51.110;6.998;2022-10-16T08:31:52;2.40;;;1.13;;
57401;SDS011;43226;51.110;6.998;2022-10-16T08:34:17;3.80;;;1.20;;
57401;SDS011;43226;51.110;6.998;2022-10-16T08:36:43;1.20;;;1.10;;
57401;SDS011;43226;51.110;6.998;2022-10-16T08:39:08;2.87;;;1.10;;
57401;SDS011;43226;51.110;6.998;2022-10-16T08:44:05;1.30;;;1.20;;
57401;SDS011;43226;51.110;6.998;2022-10-16T08:46:41;2.60;;;1.13;;
57401;SDS011;43226;51.110;6.998;2022-10-16T08:49:10;2.77;;;1.10;;
57401;SDS011;43226;51.110;6.998;2022-10-16T08:51:36;1.33;;;1.10;;
57401;SDS011;43226;51.110;6.998;2022-10-16T08:54:05;1.87;;;1.17;;
57401;SDS011;43226;51.110;6.998;2022-10-16T08:56:31;2.10;;;0.93;;
57401;SDS011;43226;51.110;6.998;2022-10-16T08:58:58;1.50;;;0.90;;
57401;SDS011;43226;51.110;6.998;2022-10-16T09:01:24;2.00;;;0.87;;
57401;SDS011;43226;51.110;6.998;2022-10-16T09:11:38;0.93;;;0.80;;
57401;SDS011;43226;51.110;6.998;2022-10-16T09:16:35;1.00;;;0.80;;
57401;SDS011;43226;51.110;6.998;2022-10-16T09:21:36;1.93;;;1.00;;
57401;SDS011;43226;51.110;6.998;2022-10-16T09:24:15;2.17;;;1.13;;
57401;SDS011;43226;51.110;6.998;2022-10-16T09:26:42;1.80;;;0.93;;
57401;SDS011;43226;51.110;6.998;2022-10-16T09:29:09;3.47;;;1.00;;
57401;SDS011;43226;51.110;6.998;2022-10-16T09:31:36;1.87;;;0.90;;
57401;SDS011;43226;51.110;6.998;2022-10-16T09:34:02;5.40;;;1.03;;
57401;SDS011;43226;51.110;6.998;2022-10-16T09:36:33;1.20;;;0.70;;
57401;SDS011;43226;51.110;6.998;2022-10-16T09:39:05;1.67;;;0.90;;
57401;SDS011;43226;51.110;6.998;2022-10-16T09:41:30;1.53;;;0.87;;
57401;SDS011;43226;51.110;6.998;2022-10-16T09:43:56;2.80;;;0.90;;
57401;SDS011;43226;51.110;6.998;2022-10-16T09:46:29;2.00;;;0.80;;
57401;SDS011;43226;51.110;6.998;2022-10-16T09:53:58;2.23;;;0.97;;
57401;SDS011;43226;51.110;6.998;2022-10-16T09:56:25;1.47;;;0.87;;
57401;SDS011;43226;51.110;6.998;2022-10-16T09:58:55;2.03;;;1.00;;
57401;SDS011;43226;51.110;6.998;2022-10-16T10:01:22;1.40;;;0.63;;
57401;SDS011;43226;51.110;6.998;2022-10-16T10:03:48;0.70;;;0.60;;
57401;SDS011;43226;51.110;6.998;2022-10-16T10:06:22;1.52;;;0.93;;
57401;SDS011;43226;51.110;6.998;2022-10-16T10:09:04;1.27;;;0.70;;
57401;SDS011;43226;51.110;6.998;2022-10-16T10:11:44;2.22;;;0.80;;
57401;SDS011;43226;51.110;6.998;2022-10-16T10:14:15;1.30;;;0.65;;
57401;SDS011;43226;51.110;6.998;2022-10-16T10:16:41;1.92;;;1.00;;
57401;SDS011;43226;51.110;6.998;2022-10-16T10:19:13;1.25;;;0.80;;
57401;SDS011;43226;51.110;6.998;2022-10-16T10:21:39;2.10;;;0.90;;
57401;SDS011;43226;51.110;6.998;2022-10-16T10:24:04;1.53;;;0.90;;
57401;SDS011;43226;51.110;6.998;2022-10-16T10:26:30;1.23;;;0.70;;
57401;SDS011;43226;51.110;6.998;2022-10-16T10:31:35;1.00;;;0.80;;
57401;SDS011;43226;51.110;6.998;2022-10-16T10:34:17;1.23;;;0.83;;
57401;SDS011;43226;51.110;6.998;2022-10-16T10:36:44;1.00;;;0.90;;
57401;SDS011;43226;51.110;6.998;2022-10-16T10:39:15;0.87;;;0.70;;
57401;SDS011;43226;51.110;6.998;2022-10-16T10:49:07;7.33;;;0.90;;
57401;SDS011;43226;51.110;6.998;2022-10-16T10:52:01;3.47;;;1.40;;
57401;SDS011;43226;51.110;6.998;2022-10-16T10:57:02;3.23;;;0.97;;
57401;SDS011;43226;51.110;6.998;2022-10-16T10:59:41;2.10;;;0.80;;
57401;SDS011;43226;51.110;6.998;2022-10-16T11:07:27;1.00;;;0.70;;
57401;SDS011;43226;51.110;6.998;2022-10-16T11:09:56;1.77;;;0.87;;
57401;SDS011;43226;51.110;6.998;2022-10-16T11:12:33;2.50;;;0.97;;
57401;SDS011;43226;51.110;6.998;2022-10-16T11:17:48;2.40;;;0.80;;
57401;SDS011;43226;51.110;6.998;2022-10-16T11:20:19;1.80;;;0.90;;
57401;SDS011;43226;51.110;6.998;2022-10-16T11:25:27;3.53;;;1.10;;
57401;SDS011;43226;51.110;6.998;2022-10-16T11:30:42;2.70;;;1.00;;
57401;SDS011;43226;51.110;6.998;2022-10-16T11:40:45;1.90;;;0.90;;
57401;SDS011;43226;51.110;6.998;2022-10-16T11:43:15;2.23;;;0.83;;
57401;SDS011;43226;51.110;6.998;2022-10-16T11:50:39;7.67;;;0.90;;
57401;SDS011;43226;51.110;6.998;2022-10-16T11:55:41;1.57;;;0.90;;
57401;SDS011;43226;51.110;6.998;2022-10-16T11:58:13;2.10;;;0.90;;
57401;SDS011;43226;51.110;6.998;2022-10-16T12:00:44;1.00;;;0.70;;
57401;SDS011;43226;51.110;6.998;2022-10-16T12:03:19;1.77;;;0.97;;
57401;SDS011;43226;51.110;6.998;2022-10-16T12:05:55;2.00;;;1.07;;
57401;SDS011;43226;51.110;6.998;2022-10-16T12:08:20;1.00;;;0.80;;
57401;SDS011;43226;51.110;6.998;2022-10-16T12:10:46;2.33;;;1.00;;
57401;SDS011;43226;51.110;6.998;2022-10-16T12:18:30;3.70;;;0.90;;
57401;SDS011;43226;51.110;6.998;2022-10-16T12:20:56;2.13;;;0.80;;
57401;SDS011;43226;51.110;6.998;2022-10-16T12:23:29;1.17;;;0.87;;
57401;SDS011;43226;51.110;6.998;2022-10-16T12:25:58;7.90;;;1.00;;
57401;SDS011;43226;51.110;6.998;2022-10-16T12:28:28;2.70;;;0.90;;
57401;SDS011;43226;51.110;6.998;2022-10-16T12:31:03;3.40;;;0.83;;
57401;SDS011;43226;51.110;6.998;2022-10-16T12:33:30;1.63;;;0.70;;
57401;SDS011;43226;51.110;6.998;2022-10-16T12:35:57;1.93;;;1.00;;
57401;SDS011;43226;51.110;6.998;2022-10-16T12:38:45;1.40;;;0.70;;
57401;SDS011;43226;51.110;6.998;2022-10-16T12:41:11;1.63;;;0.73;;
57401;SDS011;43226;51.110;6.998;2022-10-16T12:43:43;2.13;;;1.10;;
57401;SDS011;43226;51.110;6.998;2022-10-16T12:48:34;2.40;;;0.80;;
57401;SDS011;43226;51.110;6.998;2022-10-16T12:51:09;1.53;;;0.70;;
57401;SDS011;43226;51.110;6.998;2022-10-16T12:53:34;1.20;;;0.70;;
57401;SDS011;43226;51.110;6.998;2022-10-16T12:58:41;2.00;;;0.80;;
57401;SDS011;43226;51.110;6.998;2022-10-16T13:01:19;2.60;;;0.80;;
57401;SDS011;43226;51.110;6.998;2022-10-16T13:04:03;1.60;;;0.83;;
57401;SDS011;43226;51.110;6.998;2022-10-16T13:06:33;1.20;;;0.70;;
57401;SDS011;43226;51.110;6.998;2022-10-16T13:09:02;1.07;;;0.83;;
57401;SDS011;43226;51.110;6.998;2022-10-16T13:14:24;2.87;;;0.87;;
57401;SDS011;43226;51.110;6.998;2022-10-16T13:17:11;3.83;;;0.80;;
57401;SDS011;43226;51.110;6.998;2022-10-16T13:22:28;1.77;;;0.83;;
57401;SDS011;43226;51.110;6.998;2022-10-16T13:27:29;3.07;;;1.07;;
57401;SDS011;43226;51.110;6.998;2022-10-16T13:30:01;2.80;;;1.00;;
57401;SDS011;43226;51.110;6.998;2022-10-16T13:32:26;1.87;;;0.87;;
57401;SDS011;43226;51.110;6.998;2022-10-16T13:34:52;3.13;;;0.97;;
57401;SDS011;43226;51.110;6.998;2022-10-16T13:37:19;1.60;;;0.90;;
57401;SDS011;43226;51.110;6.998;2022-10-16T13:39:44;2.67;;;1.00;;
57401;SDS011;43226;51.110;6.998;2022-10-16T13:42:11;2.70;;;0.90;;
57401;SDS011;43226;51.110;6.998;2022-10-16T13:44:43;4.40;;;0.90;;
57401;SDS011;43226;51.110;6.998;2022-10-16T13:49:40;3.77;;;1.10;;
57401;SDS011;43226;51.110;6.998;2022-10-16T13:52:15;2.00;;;0.80;;
57401;SDS011;43226;51.110;6.998;2022-10-16T13:54:41;2.10;;;1.10;;
57401;SDS011;43226;51.110;6.998;2022-10-16T13:57:06;3.50;;;1.10;;
57401;SDS011;43226;51.110;6.998;2022-10-16T13:59:33;1.83;;;1.10;;
57401;SDS011;43226;51.110;6.998;2022-10-16T14:01:58;4.43;;;0.90;;
57401;SDS011;43226;51.110;6.998;2022-10-16T14:04:24;1.87;;;0.90;;
57401;SDS011;43226;51.110;6.998;2022-10-16T14:06:51;1.43;;;0.93;;
57401;SDS011;43226;51.110;6.998;2022-10-16T14:11:46;3.83;;;0.90;;
57401;SDS011;43226;51.110;6.998;2022-10-16T14:14:13;2.80;;;1.33;;
57401;SDS011;43226;51.110;6.998;2022-10-16T14:16:40;0.80;;;0.70;;
57401;SDS011;43226;51.110;6.998;2022-10-16T14:19:05;2.80;;;0.80;;
57401;SDS011;43226;51.110;6.998;2022-10-16T14:21:34;1.30;;;0.90;;
57401;SDS011;43226;51.110;6.998;2022-10-16T14:23:59;1.03;;;0.93;;
57401;SDS011;43226;51.110;6.998;2022-10-16T14:26:40;4.30;;;1.00;;
57401;SDS011;43226;51.110;6.998;2022-10-16T14:29:12;1.53;;;1.00;;
57401;SDS011;43226;51.110;6.998;2022-10-16T14:31:38;0.80;;;0.70;;
57401;SDS011;43226;51.110;6.998;2022-10-16T14:34:04;3.33;;;0.93;;
57401;SDS011;43226;51.110;6.998;2022-10-16T14:36:29;3.03;;;0.97;;
57401;SDS011;43226;51.110;6.998;2022-10-16T14:39:05;2.67;;;1.17;;
57401;SDS011;43226;51.110;6.998;2022-10-16T14:41:32;1.30;;;1.03;;
57401;SDS011;43226;51.110;6.998;2022-10-16T14:44:01;3.40;;;1.10;;
57401;SDS011;43226;51.110;6.998;2022-10-16T14:46:28;2.73;;;0.80;;
57401;SDS011;43226;51.110;6.998;2022-10-16T14:49:03;1.30;;;0.70;;
57401;SDS011;43226;51.110;6.998;2022-10-16T14:51:28;1.60;;;0.90;;
57401;SDS011;43226;51.110;6.998;2022-10-16T14:53:53;1.00;;;0.87;;
57401;SDS011;43226;51.110;6.998;2022-10-16T14:56:19;5.83;;;1.00;;
57401;SDS011;43226;51.110;6.998;2022-10-16T14:58:45;1.20;;;0.90;;
57401;SDS011;43226;51.110;6.998;2022-10-16T15:01:11;1.87;;;0.80;;
57401;SDS011;43226;51.110;6.998;2022-10-16T15:03:36;1.17;;;1.07;;
57401;SDS011;43226;51.110;6.998;2022-10-16T15:06:01;1.20;;;1.00;;
57401;SDS011;43226;51.110;6.998;2022-10-16T15:08:27;1.97;;;1.20;;
57401;SDS011;43226;51.110;6.998;2022-10-16T15:10:52;1.47;;;1.10;;
57401;SDS011;43226;51.110;6.998;2022-10-16T15:13:17;2.07;;;1.10;;
57401;SDS011;43226;51.110;6.998;2022-10-16T15:15:43;2.00;;;0.80;;
57401;SDS011;43226;51.110;6.998;2022-10-16T15:18:09;1.00;;;0.87;;
57401;SDS011;43226;51.110;6.998;2022-10-16T15:20:36;1.27;;;1.17;;
57401;SDS011;43226;51.110;6.998;2022-10-16T15:23:02;1.80;;;1.27;;
57401;SDS011;43226;51.110;6.998;2022-10-16T15:25:30;6.30;;;1.37;;
57401;SDS011;43226;51.110;6.998;2022-10-16T15:27:56;1.13;;;1.00;;
57401;SDS011;43226;51.110;6.998;2022-10-16T15:30:22;1.47;;;0.97;;
57401;SDS011;43226;51.110;6.998;2022-10-16T15:32:47;3.43;;;1.10;;
57401;SDS011;43226;51.110;6.998;2022-10-16T15:35:12;2.13;;;0.90;;
57401;SDS011;43226;51.110;6.998;2022-10-16T15:37:37;2.07;;;1.20;;
57401;SDS011;43226;51.110;6.998;2022-10-16T15:40:02;2.70;;;1.10;;
57401;SDS011;43226;51.110;6.998;2022-10-16T15:42:28;5.03;;;1.33;;
57401;SDS011;43226;51.110;6.998;2022-10-16T15:44:53;3.57;;;1.20;;
57401;SDS011;43226;51.110;6.998;2022-10-16T15:47:18;3.47;;;1.30;;
57401;SDS011;43226;51.110;6.998;2022-10-16T15:49:43;3.73;;;1.20;;
57401;SDS011;43226;51.110;6.998;2022-10-16T15:52:08;1.80;;;1.10;;
57401;SDS011;43226;51.110;6.998;2022-10-16T15:54:33;1.20;;;1.10;;
57401;SDS011;43226;51.110;6.998;2022-10-16T15:56:59;1.70;;;1.20;;
57401;SDS011;43226;51.110;6.998;2022-10-16T15:59:24;2.10;;;1.27;;
57401;SDS011;43226;51.110;6.998;2022-10-16T16:01:52;2.07;;;1.47;;
57401;SDS011;43226;51.110;6.998;2022-10-16T16:04:17;4.33;;;1.60;;
57401;SDS011;43226;51.110;6.998;2022-10-16T16:06:43;2.60;;;1.50;;
57401;SDS011;43226;51.110;6.998;2022-10-16T16:09:10;1.20;;;1.10;;
57401;SDS011;43226;51.110;6.998;2022-10-16T16:11:35;1.53;;;1.43;;
57401;SDS011;43226;51.110;6.998;2022-10-16T16:14:03;2.90;;;1.40;;
57401;SDS011;43226;51.110;6.998;2022-10-16T16:16:28;4.50;;;1.63;;
57401;SDS011;43226;51.110;6.998;2022-10-16T16:18:54;11.67;;;2.37;;
57401;SDS011;43226;51.110;6.998;2022-10-16T16:21:20;3.03;;;1.43;;
57401;SDS011;43226;51.110;6.998;2022-10-16T16:23:45;4.40;;;1.40;;
57401;SDS011;43226;51.110;6.998;2022-10-16T16:26:14;2.83;;;1.63;;
57401;SDS011;43226;51.110;6.998;2022-10-16T16:28:40;2.20;;;1.50;;
57401;SDS011;43226;51.110;6.998;2022-10-16T16:31:06;2.13;;;1.60;;
57401;SDS011;43226;51.110;6.998;2022-10-16T16:33:31;3.23;;;1.50;;